sensor_id;sensor_type;location;lat;lon;timestamp;P1;durP1;ratioP1;P2;durP2;ratioP2
4724;SDS011;2376;53.544;10.226;2023-11-21T00:01:54;13.80;;;10.40;;
4724;SDS011;2376;53.544;10.226;2023-11-21T00:04:22;12.80;;;10.30;;
4724;SDS011;2376;53.544;10.226;2023-11-21T00:06:50;14.53;;;11.40;;
4724;SDS011;2376;53.544;10.226;2023-11-21T00:09:17;14.03;;;10.53;;
4724;SDS011;2376;53.544;10.226;2023-11-21T00:11:44;15.57;;;11.77;;
4724;SDS011;2376;53.544;10.226;2023-11-21T00:14:11;15.53;;;12.40;;
4724;SDS011;2376;53.544;10.226;2023-11-21T00:16:39;15.07;;;11.10;;
4724;SDS011;2376;53.544;10.226;2023-11-21T00:19:06;17.60;;;13.30;;
4724;SDS011;2376;53.544;10.226;2023-11-21T00:21:33;19.10;;;12.17;;
4724;SDS011;2376;53.544;10.226;2023-11-21T00:24:01;17.73;;;12.97;;
4724;SDS011;2376;53.544;10.226;2023-11-21T00:26:27;15.47;;;10.90;;
4724;SDS011;2376;53.544;10.226;2023-11-21T00:28:56;14.87;;;11.17;;
4724;SDS011;2376;53.544;10.226;2023-11-21T00:31:22;20.47;;;12.93;;
4724;SDS011;2376;53.544;10.226;2023-11-21T00:33:49;16.50;;;11.80;;
4724;SDS011;2376;53.544;10.226;2023-11-21T00:36:16;26.73;;;14.00;;
4724;SDS011;2376;53.544;10.226;2023-11-21T00:38:44;17.87;;;13.23;;
4724;SDS011;2376;53.544;10.226;2023-11-21T00:41:11;24.07;;;13.60;;
4724;SDS011;2376;53.544;10.226;2023-11-21T00:43:38;16.00;;;11.90;;
4724;SDS011;2376;53.544;10.226;2023-11-21T00:46:05;21.33;;;14.57;;
4724;SDS011;2376;53.544;10.226;2023-11-21T00:48:33;17.73;;;12.50;;
4724;SDS011;2376;53.544;10.226;2023-11-21T00:50:59;20.20;;;13.50;;
4724;SDS011;2376;53.544;10.226;2023-11-21T00:53:26;18.60;;;12.30;;
4724;SDS011;2376;53.544;10.226;2023-11-21T00:55:53;20.87;;;15.27;;
4724;SDS011;2376;53.544;10.226;2023-11-21T00:58:24;18.50;;;14.70;;
4724;SDS011;2376;53.544;10.226;2023-11-21T01:00:50;22.20;;;15.13;;
4724;SDS011;2376;53.544;10.226;2023-11-21T01:03:17;27.23;;;14.83;;
4724;SDS011;2376;53.544;10.226;2023-11-21T01:05:44;19.27;;;14.63;;
4724;SDS011;2376;53.544;10.226;2023-11-21T01:08:11;22.07;;;13.60;;
4724;SDS011;2376;53.544;10.226;2023-11-21T01:10:38;18.97;;;14.33;;
4724;SDS011;2376;53.544;10.226;2023-11-21T01:13:04;17.50;;;13.00;;
4724;SDS011;2376;53.544;10.226;2023-11-21T01:15:33;17.37;;;13.10;;
4724;SDS011;2376;53.544;10.226;2023-11-21T01:18:00;15.87;;;11.63;;
4724;SDS011;2376;53.544;10.226;2023-11-21T01:20:27;19.00;;;12.87;;
4724;SDS011;2376;53.544;10.226;2023-11-21T01:22:53;18.00;;;12.70;;
4724;SDS011;2376;53.544;10.226;2023-11-21T01:25:20;17.73;;;13.20;;
4724;SDS011;2376;53.544;10.226;2023-11-21T01:27:47;16.40;;;11.97;;
4724;SDS011;2376;53.544;10.226;2023-11-21T01:30:14;14.90;;;10.80;;
4724;SDS011;2376;53.544;10.226;2023-11-21T01:32:42;15.30;;;12.53;;
4724;SDS011;2376;53.544;10.226;2023-11-21T01:35:09;11.40;;;10.20;;
4724;SDS011;2376;53.544;10.226;2023-11-21T01:37:36;14.67;;;10.93;;
4724;SDS011;2376;53.544;10.226;2023-11-21T01:40:03;13.40;;;10.53;;
4724;SDS011;2376;53.544;10.226;2023-11-21T01:42:34;13.73;;;10.83;;
4724;SDS011;2376;53.544;10.226;2023-11-21T01:45:00;12.57;;;10.73;;
4724;SDS011;2376;53.544;10.226;2023-11-21T01:47:29;13.10;;;10.80;;
4724;SDS011;2376;53.544;10.226;2023-11-21T01:49:58;13.27;;;10.60;;
4724;SDS011;2376;53.544;10.226;2023-11-21T01:52:25;13.60;;;10.27;;
4724;SDS011;2376;53.544;10.226;2023-11-21T01:54:52;13.87;;;9.50;;
4724;SDS011;2376;53.544;10.226;2023-11-21T01:57:19;9.77;;;8.30;;
4724;SDS011;2376;53.544;10.226;2023-11-21T01:59:46;10.80;;;8.43;;
4724;SDS011;2376;53.544;10.226;2023-11-21T02:02:14;9.90;;;8.70;;
4724;SDS011;2376;53.544;10.226;2023-11-21T02:04:41;9.70;;;8.70;;
4724;SDS011;2376;53.544;10.226;2023-11-21T02:07:10;7.50;;;6.80;;
4724;SDS011;2376;53.544;10.226;2023-11-21T02:09:36;9.30;;;7.80;;
4724;SDS011;2376;53.544;10.226;2023-11-21T02:12:07;9.87;;;8.03;;
4724;SDS011;2376;53.544;10.226;2023-11-21T02:14:35;10.10;;;7.87;;
4724;SDS011;2376;53.544;10.226;2023-11-21T02:17:03;9.70;;;8.20;;
4724;SDS011;2376;53.544;10.226;2023-11-21T02:19:30;8.13;;;7.33;;
4724;SDS011;2376;53.544;10.226;2023-11-21T02:21:57;9.50;;;8.10;;
4724;SDS011;2376;53.544;10.226;2023-11-21T02:24:29;8.53;;;7.70;;
4724;SDS011;2376;53.544;10.226;2023-11-21T02:26:56;10.03;;;9.00;;
4724;SDS011;2376;53.544;10.226;2023-11-21T02:29:23;9.20;;;8.30;;
4724;SDS011;2376;53.544;10.226;2023-11-21T02:31:53;12.70;;;8.70;;
4724;SDS011;2376;53.544;10.226;2023-11-21T02:34:20;8.53;;;7.63;;
4724;SDS011;2376;53.544;10.226;2023-11-21T02:36:48;8.20;;;7.50;;
4724;SDS011;2376;53.544;10.226;2023-11-21T02:39:16;8.87;;;7.87;;
4724;SDS011;2376;53.544;10.226;2023-11-21T02:41:44;9.40;;;8.00;;
4724;SDS011;2376;53.544;10.226;2023-11-21T02:44:11;10.10;;;8.27;;
4724;SDS011;2376;53.544;10.226;2023-11-21T02:46:38;8.60;;;6.90;;
4724;SDS011;2376;53.544;10.226;2023-11-21T02:49:05;9.33;;;7.80;;
4724;SDS011;2376;53.544;10.226;2023-11-21T02:51:32;9.90;;;8.90;;
4724;SDS011;2376;53.544;10.226;2023-11-21T02:53:59;8.20;;;7.50;;
4724;SDS011;2376;53.544;10.226;2023-11-21T02:56:27;8.80;;;8.00;;
4724;SDS011;2376;53.544;10.226;2023-11-21T02:58:56;8.90;;;7.50;;
4724;SDS011;2376;53.544;10.226;2023-11-21T03:01:22;9.80;;;7.80;;
4724;SDS011;2376;53.544;10.226;2023-11-21T03:03:50;11.40;;;8.30;;
4724;SDS011;2376;53.544;10.226;2023-11-21T03:06:17;8.83;;;7.80;;
4724;SDS011;2376;53.544;10.226;2023-11-21T03:08:43;7.17;;;6.57;;
4724;SDS011;2376;53.544;10.226;2023-11-21T03:11:10;8.10;;;7.30;;
4724;SDS011;2376;53.544;10.226;2023-11-21T03:13:37;8.93;;;7.63;;
4724;SDS011;2376;53.544;10.226;2023-11-21T03:16:06;9.77;;;7.50;;
4724;SDS011;2376;53.544;10.226;2023-11-21T03:18:33;9.00;;;7.80;;
4724;SDS011;2376;53.544;10.226;2023-11-21T03:21:01;8.73;;;7.60;;
4724;SDS011;2376;53.544;10.226;2023-11-21T03:23:28;10.30;;;8.30;;
4724;SDS011;2376;53.544;10.226;2023-11-21T03:25:54;8.50;;;7.60;;
4724;SDS011;2376;53.544;10.226;2023-11-21T03:28:21;8.23;;;6.80;;
4724;SDS011;2376;53.544;10.226;2023-11-21T03:30:48;8.10;;;6.90;;
4724;SDS011;2376;53.544;10.226;2023-11-21T03:33:16;8.13;;;6.83;;
4724;SDS011;2376;53.544;10.226;2023-11-21T03:35:43;8.90;;;7.40;;
4724;SDS011;2376;53.544;10.226;2023-11-21T03:38:11;9.07;;;8.17;;
4724;SDS011;2376;53.544;10.226;2023-11-21T03:40:37;9.37;;;8.47;;
4724;SDS011;2376;53.544;10.226;2023-11-21T03:43:05;9.97;;;7.20;;
4724;SDS011;2376;53.544;10.226;2023-11-21T03:45:32;8.90;;;8.00;;
4724;SDS011;2376;53.544;10.226;2023-11-21T03:47:59;9.87;;;7.73;;
4724;SDS011;2376;53.544;10.226;2023-11-21T03:50:28;8.00;;;7.23;;
4724;SDS011;2376;53.544;10.226;2023-11-21T03:52:54;7.50;;;6.80;;
4724;SDS011;2376;53.544;10.226;2023-11-21T03:55:21;8.60;;;7.80;;
4724;SDS011;2376;53.544;10.226;2023-11-21T03:57:49;9.60;;;7.60;;
4724;SDS011;2376;53.544;10.226;2023-11-21T04:00:16;8.43;;;7.37;;
4724;SDS011;2376;53.544;10.226;2023-11-21T04:02:45;9.63;;;8.73;;
4724;SDS011;2376;53.544;10.226;2023-11-21T04:05:12;8.57;;;7.77;;
4724;SDS011;2376;53.544;10.226;2023-11-21T04:07:40;11.63;;;7.90;;
4724;SDS011;2376;53.544;10.226;2023-11-21T04:10:07;8.53;;;7.63;;
4724;SDS011;2376;53.544;10.226;2023-11-21T04:12:37;12.00;;;9.03;;
4724;SDS011;2376;53.544;10.226;2023-11-21T04:15:04;10.60;;;7.77;;
4724;SDS011;2376;53.544;10.226;2023-11-21T04:17:33;13.73;;;9.00;;
4724;SDS011;2376;53.544;10.226;2023-11-21T04:20:01;8.70;;;7.90;;
4724;SDS011;2376;53.544;10.226;2023-11-21T04:22:28;9.50;;;7.83;;
4724;SDS011;2376;53.544;10.226;2023-11-21T04:24:56;9.60;;;8.13;;
4724;SDS011;2376;53.544;10.226;2023-11-21T04:27:23;8.97;;;7.80;;
4724;SDS011;2376;53.544;10.226;2023-11-21T04:29:49;10.17;;;7.70;;
4724;SDS011;2376;53.544;10.226;2023-11-21T04:32:16;10.10;;;8.20;;
4724;SDS011;2376;53.544;10.226;2023-11-21T04:34:43;9.37;;;8.10;;
4724;SDS011;2376;53.544;10.226;2023-11-21T04:37:09;9.57;;;8.77;;
4724;SDS011;2376;53.544;10.226;2023-11-21T04:39:36;11.10;;;8.80;;
4724;SDS011;2376;53.544;10.226;2023-11-21T04:42:05;9.90;;;7.87;;
4724;SDS011;2376;53.544;10.226;2023-11-21T04:44:32;8.80;;;7.20;;
4724;SDS011;2376;53.544;10.226;2023-11-21T04:46:58;9.23;;;8.33;;
4724;SDS011;2376;53.544;10.226;2023-11-21T04:49:25;10.40;;;9.17;;
4724;SDS011;2376;53.544;10.226;2023-11-21T04:51:51;8.70;;;7.00;;
4724;SDS011;2376;53.544;10.226;2023-11-21T04:54:18;9.60;;;8.53;;
4724;SDS011;2376;53.544;10.226;2023-11-21T04:56:44;9.10;;;8.20;;
4724;SDS011;2376;53.544;10.226;2023-11-21T04:59:12;8.30;;;7.40;;
4724;SDS011;2376;53.544;10.226;2023-11-21T05:01:39;9.40;;;8.50;;
4724;SDS011;2376;53.544;10.226;2023-11-21T05:04:06;8.57;;;7.60;;
4724;SDS011;2376;53.544;10.226;2023-11-21T05:06:33;10.23;;;7.67;;
4724;SDS011;2376;53.544;10.226;2023-11-21T05:09:00;11.33;;;8.30;;
4724;SDS011;2376;53.544;10.226;2023-11-21T05:11:27;9.50;;;7.50;;
4724;SDS011;2376;53.544;10.226;2023-11-21T05:13:54;9.50;;;8.60;;
4724;SDS011;2376;53.544;10.226;2023-11-21T05:16:25;9.50;;;8.37;;
4724;SDS011;2376;53.544;10.226;2023-11-21T05:18:52;10.17;;;8.90;;
4724;SDS011;2376;53.544;10.226;2023-11-21T05:21:21;9.20;;;8.17;;
4724;SDS011;2376;53.544;10.226;2023-11-21T05:23:48;9.30;;;8.10;;
4724;SDS011;2376;53.544;10.226;2023-11-21T05:26:15;8.23;;;7.50;;
4724;SDS011;2376;53.544;10.226;2023-11-21T05:28:41;10.20;;;8.83;;
4724;SDS011;2376;53.544;10.226;2023-11-21T05:31:08;13.60;;;8.93;;
4724;SDS011;2376;53.544;10.226;2023-11-21T05:33:37;10.40;;;8.13;;
4724;SDS011;2376;53.544;10.226;2023-11-21T05:36:03;15.33;;;9.23;;
4724;SDS011;2376;53.544;10.226;2023-11-21T05:38:32;17.43;;;8.33;;
4724;SDS011;2376;53.544;10.226;2023-11-21T05:41:00;9.50;;;8.30;;
4724;SDS011;2376;53.544;10.226;2023-11-21T05:43:26;13.23;;;8.30;;
4724;SDS011;2376;53.544;10.226;2023-11-21T05:45:54;9.33;;;7.60;;
4724;SDS011;2376;53.544;10.226;2023-11-21T05:48:21;9.93;;;8.20;;
4724;SDS011;2376;53.544;10.226;2023-11-21T05:50:49;11.83;;;8.50;;
4724;SDS011;2376;53.544;10.226;2023-11-21T05:53:16;9.90;;;7.53;;
4724;SDS011;2376;53.544;10.226;2023-11-21T05:55:43;10.80;;;9.63;;
4724;SDS011;2376;53.544;10.226;2023-11-21T05:58:09;11.90;;;9.03;;
4724;SDS011;2376;53.544;10.226;2023-11-21T06:00:36;10.30;;;9.23;;
4724;SDS011;2376;53.544;10.226;2023-11-21T06:03:03;11.47;;;8.90;;
4724;SDS011;2376;53.544;10.226;2023-11-21T06:05:31;9.73;;;8.63;;
4724;SDS011;2376;53.544;10.226;2023-11-21T06:08:00;10.70;;;9.60;;
4724;SDS011;2376;53.544;10.226;2023-11-21T06:10:26;14.53;;;9.47;;
4724;SDS011;2376;53.544;10.226;2023-11-21T06:12:53;9.13;;;8.23;;
4724;SDS011;2376;53.544;10.226;2023-11-21T06:15:20;10.90;;;8.80;;
4724;SDS011;2376;53.544;10.226;2023-11-21T06:17:48;9.80;;;8.10;;
4724;SDS011;2376;53.544;10.226;2023-11-21T06:20:17;11.90;;;8.87;;
4724;SDS011;2376;53.544;10.226;2023-11-21T06:22:45;9.57;;;8.57;;
4724;SDS011;2376;53.544;10.226;2023-11-21T06:25:14;9.90;;;9.00;;
4724;SDS011;2376;53.544;10.226;2023-11-21T06:27:41;9.67;;;8.60;;
4724;SDS011;2376;53.544;10.226;2023-11-21T06:30:09;10.40;;;8.93;;
4724;SDS011;2376;53.544;10.226;2023-11-21T06:32:37;9.03;;;8.13;;
4724;SDS011;2376;53.544;10.226;2023-11-21T06:35:05;9.43;;;8.43;;
4724;SDS011;2376;53.544;10.226;2023-11-21T06:37:33;9.50;;;8.50;;
4724;SDS011;2376;53.544;10.226;2023-11-21T06:40:00;10.90;;;9.33;;
4724;SDS011;2376;53.544;10.226;2023-11-21T06:42:30;13.73;;;9.50;;
4724;SDS011;2376;53.544;10.226;2023-11-21T06:44:57;13.33;;;9.93;;
4724;SDS011;2376;53.544;10.226;2023-11-21T06:47:23;13.40;;;9.23;;
4724;SDS011;2376;53.544;10.226;2023-11-21T06:49:50;11.37;;;9.10;;
4724;SDS011;2376;53.544;10.226;2023-11-21T06:52:17;12.17;;;9.83;;
4724;SDS011;2376;53.544;10.226;2023-11-21T06:54:45;9.83;;;8.90;;
4724;SDS011;2376;53.544;10.226;2023-11-21T06:57:12;10.97;;;9.80;;
4724;SDS011;2376;53.544;10.226;2023-11-21T06:59:40;10.20;;;9.23;;
4724;SDS011;2376;53.544;10.226;2023-11-21T07:02:07;11.03;;;9.40;;
4724;SDS011;2376;53.544;10.226;2023-11-21T07:04:34;8.53;;;7.83;;
4724;SDS011;2376;53.544;10.226;2023-11-21T07:07:01;9.90;;;8.90;;
4724;SDS011;2376;53.544;10.226;2023-11-21T07:09:28;13.43;;;8.57;;
4724;SDS011;2376;53.544;10.226;2023-11-21T07:11:56;9.87;;;8.87;;
4724;SDS011;2376;53.544;10.226;2023-11-21T07:14:23;10.80;;;8.87;;
4724;SDS011;2376;53.544;10.226;2023-11-21T07:16:51;11.13;;;9.70;;
4724;SDS011;2376;53.544;10.226;2023-11-21T07:19:17;12.03;;;10.47;;
4724;SDS011;2376;53.544;10.226;2023-11-21T07:21:44;10.53;;;8.63;;
4724;SDS011;2376;53.544;10.226;2023-11-21T07:24:11;14.37;;;8.87;;
4724;SDS011;2376;53.544;10.226;2023-11-21T07:26:38;11.30;;;9.03;;
4724;SDS011;2376;53.544;10.226;2023-11-21T07:29:04;14.03;;;8.80;;
4724;SDS011;2376;53.544;10.226;2023-11-21T07:31:32;9.87;;;8.90;;
4724;SDS011;2376;53.544;10.226;2023-11-21T07:34:00;9.33;;;8.33;;
4724;SDS011;2376;53.544;10.226;2023-11-21T07:36:27;8.90;;;8.10;;
4724;SDS011;2376;53.544;10.226;2023-11-21T07:38:54;10.23;;;9.27;;
4724;SDS011;2376;53.544;10.226;2023-11-21T07:41:20;10.97;;;9.87;;
4724;SDS011;2376;53.544;10.226;2023-11-21T07:43:47;10.83;;;9.60;;
4724;SDS011;2376;53.544;10.226;2023-11-21T07:46:14;13.70;;;9.47;;
4724;SDS011;2376;53.544;10.226;2023-11-21T07:48:41;10.23;;;9.20;;
4724;SDS011;2376;53.544;10.226;2023-11-21T07:51:09;11.20;;;8.67;;
4724;SDS011;2376;53.544;10.226;2023-11-21T07:53:37;9.03;;;8.13;;
4724;SDS011;2376;53.544;10.226;2023-11-21T07:56:04;8.80;;;7.90;;
4724;SDS011;2376;53.544;10.226;2023-11-21T07:58:32;9.73;;;7.90;;
4724;SDS011;2376;53.544;10.226;2023-11-21T08:00:59;10.10;;;8.03;;
4724;SDS011;2376;53.544;10.226;2023-11-21T08:03:26;8.87;;;7.90;;
4724;SDS011;2376;53.544;10.226;2023-11-21T08:05:54;9.40;;;8.00;;
4724;SDS011;2376;53.544;10.226;2023-11-21T08:08:22;7.63;;;6.83;;
4724;SDS011;2376;53.544;10.226;2023-11-21T08:10:49;7.33;;;6.40;;
4724;SDS011;2376;53.544;10.226;2023-11-21T08:13:21;7.70;;;7.00;;
4724;SDS011;2376;53.544;10.226;2023-11-21T08:15:48;8.03;;;7.33;;
4724;SDS011;2376;53.544;10.226;2023-11-21T08:18:14;8.13;;;7.40;;
4724;SDS011;2376;53.544;10.226;2023-11-21T08:20:42;16.50;;;6.90;;
4724;SDS011;2376;53.544;10.226;2023-11-21T08:23:12;7.03;;;6.20;;
4724;SDS011;2376;53.544;10.226;2023-11-21T08:25:41;7.20;;;6.50;;
4724;SDS011;2376;53.544;10.226;2023-11-21T08:28:08;6.80;;;6.20;;
4724;SDS011;2376;53.544;10.226;2023-11-21T08:30:35;7.07;;;6.47;;
4724;SDS011;2376;53.544;10.226;2023-11-21T08:33:02;6.50;;;5.93;;
4724;SDS011;2376;53.544;10.226;2023-11-21T08:35:29;8.97;;;6.50;;
4724;SDS011;2376;53.544;10.226;2023-11-21T08:37:57;6.70;;;6.10;;
4724;SDS011;2376;53.544;10.226;2023-11-21T08:40:23;6.70;;;6.00;;
4724;SDS011;2376;53.544;10.226;2023-11-21T08:42:51;6.20;;;5.70;;
4724;SDS011;2376;53.544;10.226;2023-11-21T08:45:18;7.70;;;6.03;;
4724;SDS011;2376;53.544;10.226;2023-11-21T08:47:46;6.17;;;5.57;;
4724;SDS011;2376;53.544;10.226;2023-11-21T08:50:12;5.33;;;4.83;;
4724;SDS011;2376;53.544;10.226;2023-11-21T08:52:40;9.20;;;6.50;;
4724;SDS011;2376;53.544;10.226;2023-11-21T08:55:07;5.93;;;5.20;;
4724;SDS011;2376;53.544;10.226;2023-11-21T08:57:34;5.07;;;4.67;;
4724;SDS011;2376;53.544;10.226;2023-11-21T09:00:02;4.87;;;4.47;;
4724;SDS011;2376;53.544;10.226;2023-11-21T09:02:32;5.30;;;4.90;;
4724;SDS011;2376;53.544;10.226;2023-11-21T09:05:00;5.90;;;5.30;;
4724;SDS011;2376;53.544;10.226;2023-11-21T09:07:28;5.73;;;5.30;;
4724;SDS011;2376;53.544;10.226;2023-11-21T09:09:54;4.83;;;4.53;;
4724;SDS011;2376;53.544;10.226;2023-11-21T09:12:21;4.83;;;4.50;;
4724;SDS011;2376;53.544;10.226;2023-11-21T09:14:49;4.57;;;4.13;;
4724;SDS011;2376;53.544;10.226;2023-11-21T09:17:18;5.40;;;4.77;;
4724;SDS011;2376;53.544;10.226;2023-11-21T09:19:44;4.53;;;4.13;;
4724;SDS011;2376;53.544;10.226;2023-11-21T09:22:15;4.07;;;3.67;;
4724;SDS011;2376;53.544;10.226;2023-11-21T09:24:41;3.60;;;3.40;;
4724;SDS011;2376;53.544;10.226;2023-11-21T09:27:08;5.40;;;4.30;;
4724;SDS011;2376;53.544;10.226;2023-11-21T09:29:36;3.53;;;3.33;;
4724;SDS011;2376;53.544;10.226;2023-11-21T09:32:03;4.83;;;3.93;;
4724;SDS011;2376;53.544;10.226;2023-11-21T09:34:32;4.30;;;4.00;;
4724;SDS011;2376;53.544;10.226;2023-11-21T09:37:01;4.47;;;4.07;;
4724;SDS011;2376;53.544;10.226;2023-11-21T09:39:30;3.67;;;3.47;;
4724;SDS011;2376;53.544;10.226;2023-11-21T09:41:57;5.13;;;4.63;;
4724;SDS011;2376;53.544;10.226;2023-11-21T09:44:31;3.90;;;3.70;;
4724;SDS011;2376;53.544;10.226;2023-11-21T09:47:01;4.13;;;3.90;;
4724;SDS011;2376;53.544;10.226;2023-11-21T09:49:29;4.03;;;3.73;;
4724;SDS011;2376;53.544;10.226;2023-11-21T09:52:01;4.40;;;4.00;;
4724;SDS011;2376;53.544;10.226;2023-11-21T09:54:29;4.53;;;4.17;;
4724;SDS011;2376;53.544;10.226;2023-11-21T09:56:57;3.70;;;3.50;;
4724;SDS011;2376;53.544;10.226;2023-11-21T09:59:25;4.77;;;4.23;;
4724;SDS011;2376;53.544;10.226;2023-11-21T10:01:56;4.47;;;4.13;;
4724;SDS011;2376;53.544;10.226;2023-11-21T10:04:24;3.90;;;3.60;;
4724;SDS011;2376;53.544;10.226;2023-11-21T10:06:53;5.20;;;4.03;;
4724;SDS011;2376;53.544;10.226;2023-11-21T10:09:20;4.23;;;4.03;;
4724;SDS011;2376;53.544;10.226;2023-11-21T10:11:49;4.43;;;4.13;;
4724;SDS011;2376;53.544;10.226;2023-11-21T10:14:16;4.53;;;3.87;;
4724;SDS011;2376;53.544;10.226;2023-11-21T10:16:45;3.97;;;3.70;;
4724;SDS011;2376;53.544;10.226;2023-11-21T10:19:14;3.60;;;3.30;;
4724;SDS011;2376;53.544;10.226;2023-11-21T10:21:42;3.50;;;3.30;;
4724;SDS011;2376;53.544;10.226;2023-11-21T10:24:10;3.80;;;3.50;;
4724;SDS011;2376;53.544;10.226;2023-11-21T10:26:37;3.33;;;3.17;;
4724;SDS011;2376;53.544;10.226;2023-11-21T10:29:04;3.83;;;3.50;;
4724;SDS011;2376;53.544;10.226;2023-11-21T10:31:31;3.43;;;3.23;;
4724;SDS011;2376;53.544;10.226;2023-11-21T10:34:11;3.20;;;3.00;;
4724;SDS011;2376;53.544;10.226;2023-11-21T10:36:39;3.80;;;3.50;;
4724;SDS011;2376;53.544;10.226;2023-11-21T10:39:06;2.80;;;2.63;;
4724;SDS011;2376;53.544;10.226;2023-11-21T10:41:34;3.10;;;2.90;;
4724;SDS011;2376;53.544;10.226;2023-11-21T10:44:00;3.27;;;3.00;;
4724;SDS011;2376;53.544;10.226;2023-11-21T10:46:29;3.53;;;3.30;;
4724;SDS011;2376;53.544;10.226;2023-11-21T10:48:56;3.77;;;3.47;;
4724;SDS011;2376;53.544;10.226;2023-11-21T10:51:23;3.80;;;3.43;;
4724;SDS011;2376;53.544;10.226;2023-11-21T10:53:51;3.50;;;3.30;;
4724;SDS011;2376;53.544;10.226;2023-11-21T10:56:18;3.70;;;3.50;;
4724;SDS011;2376;53.544;10.226;2023-11-21T10:58:47;3.27;;;3.07;;
4724;SDS011;2376;53.544;10.226;2023-11-21T11:01:16;4.20;;;3.90;;
4724;SDS011;2376;53.544;10.226;2023-11-21T11:03:46;3.47;;;3.27;;
4724;SDS011;2376;53.544;10.226;2023-11-21T11:06:14;5.10;;;4.80;;
4724;SDS011;2376;53.544;10.226;2023-11-21T11:08:41;3.37;;;3.13;;
4724;SDS011;2376;53.544;10.226;2023-11-21T11:11:07;4.77;;;4.07;;
4724;SDS011;2376;53.544;10.226;2023-11-21T11:13:35;4.20;;;3.60;;
4724;SDS011;2376;53.544;10.226;2023-11-21T11:16:05;3.43;;;3.23;;
4724;SDS011;2376;53.544;10.226;2023-11-21T11:18:35;3.77;;;3.47;;
4724;SDS011;2376;53.544;10.226;2023-11-21T11:21:07;3.63;;;3.30;;
4724;SDS011;2376;53.544;10.226;2023-11-21T11:23:44;3.87;;;3.57;;
4724;SDS011;2376;53.544;10.226;2023-11-21T11:26:24;3.80;;;3.50;;
4724;SDS011;2376;53.544;10.226;2023-11-21T11:29:01;4.17;;;3.87;;
4724;SDS011;2376;53.544;10.226;2023-11-21T11:31:39;4.17;;;3.87;;
4724;SDS011;2376;53.544;10.226;2023-11-21T11:34:17;4.03;;;3.60;;
4724;SDS011;2376;53.544;10.226;2023-11-21T11:36:54;3.10;;;2.90;;
4724;SDS011;2376;53.544;10.226;2023-11-21T11:39:29;4.70;;;3.87;;
4724;SDS011;2376;53.544;10.226;2023-11-21T11:41:56;4.37;;;3.83;;
4724;SDS011;2376;53.544;10.226;2023-11-21T11:47:19;5.43;;;3.87;;
4724;SDS011;2376;53.544;10.226;2023-11-21T11:50:03;3.60;;;3.37;;
4724;SDS011;2376;53.544;10.226;2023-11-21T11:52:34;3.37;;;3.10;;
4724;SDS011;2376;53.544;10.226;2023-11-21T11:55:02;3.57;;;3.30;;
4724;SDS011;2376;53.544;10.226;2023-11-21T11:57:30;3.33;;;3.10;;
4724;SDS011;2376;53.544;10.226;2023-11-21T12:00:07;3.60;;;3.40;;
4724;SDS011;2376;53.544;10.226;2023-11-21T12:02:37;3.57;;;3.03;;
4724;SDS011;2376;53.544;10.226;2023-11-21T12:05:08;4.00;;;3.70;;
4724;SDS011;2376;53.544;10.226;2023-11-21T12:07:46;4.40;;;4.00;;
4724;SDS011;2376;53.544;10.226;2023-11-21T12:10:14;3.93;;;3.47;;
4724;SDS011;2376;53.544;10.226;2023-11-21T12:12:43;3.90;;;3.33;;
4724;SDS011;2376;53.544;10.226;2023-11-21T12:15:13;5.13;;;3.90;;
4724;SDS011;2376;53.544;10.226;2023-11-21T12:17:42;4.47;;;4.20;;
4724;SDS011;2376;53.544;10.226;2023-11-21T12:20:10;4.43;;;3.77;;
4724;SDS011;2376;53.544;10.226;2023-11-21T12:22:42;2.77;;;2.60;;
4724;SDS011;2376;53.544;10.226;2023-11-21T12:25:09;3.50;;;3.30;;
4724;SDS011;2376;53.544;10.226;2023-11-21T12:27:40;4.10;;;3.80;;
4724;SDS011;2376;53.544;10.226;2023-11-21T12:30:08;3.90;;;3.60;;
4724;SDS011;2376;53.544;10.226;2023-11-21T12:32:38;4.50;;;3.50;;
4724;SDS011;2376;53.544;10.226;2023-11-21T12:35:07;3.83;;;3.27;;
4724;SDS011;2376;53.544;10.226;2023-11-21T12:37:34;3.90;;;3.70;;
4724;SDS011;2376;53.544;10.226;2023-11-21T12:40:02;2.80;;;2.60;;
4724;SDS011;2376;53.544;10.226;2023-11-21T12:42:29;5.03;;;2.97;;
4724;SDS011;2376;53.544;10.226;2023-11-21T12:45:06;3.23;;;3.10;;
4724;SDS011;2376;53.544;10.226;2023-11-21T12:47:39;4.70;;;3.63;;
4724;SDS011;2376;53.544;10.226;2023-11-21T12:50:08;3.10;;;2.80;;
4724;SDS011;2376;53.544;10.226;2023-11-21T12:52:40;4.00;;;3.60;;
4724;SDS011;2376;53.544;10.226;2023-11-21T12:55:13;3.37;;;3.07;;
4724;SDS011;2376;53.544;10.226;2023-11-21T12:57:42;3.60;;;3.30;;
4724;SDS011;2376;53.544;10.226;2023-11-21T13:00:10;3.80;;;3.50;;
4724;SDS011;2376;53.544;10.226;2023-11-21T13:02:49;3.67;;;3.27;;
4724;SDS011;2376;53.544;10.226;2023-11-21T13:05:24;3.10;;;2.90;;
4724;SDS011;2376;53.544;10.226;2023-11-21T13:07:51;3.50;;;3.30;;
4724;SDS011;2376;53.544;10.226;2023-11-21T13:10:19;3.10;;;2.90;;
4724;SDS011;2376;53.544;10.226;2023-11-21T13:12:50;3.33;;;3.13;;
4724;SDS011;2376;53.544;10.226;2023-11-21T13:15:17;3.40;;;3.10;;
4724;SDS011;2376;53.544;10.226;2023-11-21T13:17:45;3.10;;;2.90;;
4724;SDS011;2376;53.544;10.226;2023-11-21T13:20:12;2.80;;;2.70;;
4724;SDS011;2376;53.544;10.226;2023-11-21T13:22:45;4.07;;;3.73;;
4724;SDS011;2376;53.544;10.226;2023-11-21T13:25:19;3.50;;;3.30;;
4724;SDS011;2376;53.544;10.226;2023-11-21T13:27:47;3.00;;;2.80;;
4724;SDS011;2376;53.544;10.226;2023-11-21T13:30:14;5.00;;;3.40;;
4724;SDS011;2376;53.544;10.226;2023-11-21T13:32:41;3.33;;;3.13;;
4724;SDS011;2376;53.544;10.226;2023-11-21T13:35:08;3.60;;;2.83;;
4724;SDS011;2376;53.544;10.226;2023-11-21T13:37:46;4.23;;;2.63;;
4724;SDS011;2376;53.544;10.226;2023-11-21T13:40:16;3.27;;;3.07;;
4724;SDS011;2376;53.544;10.226;2023-11-21T13:42:47;4.17;;;3.87;;
4724;SDS011;2376;53.544;10.226;2023-11-21T13:45:18;3.07;;;2.87;;
4724;SDS011;2376;53.544;10.226;2023-11-21T13:47:45;3.90;;;3.60;;
4724;SDS011;2376;53.544;10.226;2023-11-21T13:50:12;4.73;;;3.37;;
4724;SDS011;2376;53.544;10.226;2023-11-21T13:52:48;3.80;;;3.50;;
4724;SDS011;2376;53.544;10.226;2023-11-21T13:55:18;4.10;;;3.70;;
4724;SDS011;2376;53.544;10.226;2023-11-21T13:57:44;10.57;;;3.47;;
4724;SDS011;2376;53.544;10.226;2023-11-21T14:00:14;3.93;;;3.20;;
4724;SDS011;2376;53.544;10.226;2023-11-21T14:03:06;3.43;;;3.20;;
4724;SDS011;2376;53.544;10.226;2023-11-21T14:05:41;3.53;;;3.33;;
4724;SDS011;2376;53.544;10.226;2023-11-21T14:08:10;4.00;;;3.70;;
4724;SDS011;2376;53.544;10.226;2023-11-21T14:10:41;3.60;;;3.30;;
4724;SDS011;2376;53.544;10.226;2023-11-21T14:13:09;2.97;;;2.77;;
4724;SDS011;2376;53.544;10.226;2023-11-21T14:15:37;4.53;;;3.47;;
4724;SDS011;2376;53.544;10.226;2023-11-21T14:18:08;3.03;;;2.80;;
4724;SDS011;2376;53.544;10.226;2023-11-21T14:20:36;3.17;;;2.97;;
4724;SDS011;2376;53.544;10.226;2023-11-21T14:23:03;4.50;;;3.70;;
4724;SDS011;2376;53.544;10.226;2023-11-21T14:25:32;2.67;;;2.57;;
4724;SDS011;2376;53.544;10.226;2023-11-21T14:28:01;2.90;;;2.70;;
4724;SDS011;2376;53.544;10.226;2023-11-21T14:30:29;2.73;;;2.53;;
4724;SDS011;2376;53.544;10.226;2023-11-21T14:32:57;3.17;;;2.97;;
4724;SDS011;2376;53.544;10.226;2023-11-21T14:35:23;4.30;;;3.43;;
4724;SDS011;2376;53.544;10.226;2023-11-21T14:37:51;3.50;;;2.97;;
4724;SDS011;2376;53.544;10.226;2023-11-21T14:40:18;3.03;;;2.83;;
4724;SDS011;2376;53.544;10.226;2023-11-21T14:42:50;3.90;;;2.40;;
4724;SDS011;2376;53.544;10.226;2023-11-21T14:45:19;2.93;;;2.77;;
4724;SDS011;2376;53.544;10.226;2023-11-21T14:47:47;2.97;;;2.77;;
4724;SDS011;2376;53.544;10.226;2023-11-21T14:50:22;3.50;;;2.67;;
4724;SDS011;2376;53.544;10.226;2023-11-21T14:53:12;3.03;;;2.80;;
4724;SDS011;2376;53.544;10.226;2023-11-21T14:55:39;2.50;;;2.30;;
4724;SDS011;2376;53.544;10.226;2023-11-21T14:58:20;3.50;;;2.20;;
4724;SDS011;2376;53.544;10.226;2023-11-21T15:00:51;2.27;;;2.17;;
4724;SDS011;2376;53.544;10.226;2023-11-21T15:03:22;4.83;;;2.67;;
4724;SDS011;2376;53.544;10.226;2023-11-21T15:06:08;2.23;;;2.13;;